»·PEaware :: QXE2223 KPDX-KBOI

QXE2223 :: KPDX-KBOI

FLIGHT INFORMATION

Flight Status: Arrived
Operator:
Horizon Air
More flights by this operator :: More flights under this callsign
Pilot: Ben F. (2808)
Aircraft: DEHAVILLAND DASH 8 400
(DH8D)
More flights by this aircraft type
Origin: KPDX Portland Intl
United States
Destination: KBOI Boise Air Terminal/Gowen
United States
More flights between these airports :: More routes between these airports
Route: +PTLD1 TIMEE J15 IMB HOSTS PARMO3
File this flight plan on PilotEdge
Remarks:
Altitude:
(Current/Filed)
25,000ft
Speed:
(Current/Filed)
328kts
Departed: 02-Jun-19 08:26 AM
Arrived: 02-Jun-19 09:29 AM
Distance/Time
Traveled:
298nm/1:03
Distance/Time
To Go:
Arrived

Flight Plot

Page will automatically refresh every two minutes.

Flight plan parsing failed; only flown route is shown


Map Options




Map Legend


Flown Route
Filed Route
Departure Airport
Arrival Airport
Navaid (VOR, NDB)
Fix

Horizontal Profiles

Position Reports

Time Latitude Longitude Heading Altitude Ground
Speed
02-Jun-19 07:50 45.585911 -122.591941 14 38ft 0kts
02-Jun-19 07:51 45.585911 -122.591941 14 38ft 0kts
02-Jun-19 07:52 45.585911 -122.591941 14 38ft 0kts
02-Jun-19 07:53 45.585911 -122.591941 14 38ft 0kts
02-Jun-19 07:54 45.585911 -122.591941 14 38ft 0kts
02-Jun-19 07:55 45.585911 -122.591941 14 38ft 0kts
02-Jun-19 07:56 45.585911 -122.591941 14 38ft 0kts
02-Jun-19 07:57 45.585911 -122.591941 14 38ft 0kts
02-Jun-19 07:58 45.585912 -122.591941 14 38ft 0kts
02-Jun-19 07:59 45.585912 -122.591941 14 38ft 0kts
02-Jun-19 08:00 45.585912 -122.591941 14 38ft 0kts
02-Jun-19 08:01 45.585912 -122.591941 14 38ft 0kts
02-Jun-19 08:02 45.585912 -122.591941 14 38ft 0kts
02-Jun-19 08:03 45.585912 -122.591941 14 38ft 0kts
02-Jun-19 08:04 45.585912 -122.591941 14 38ft 0kts
02-Jun-19 08:05 45.585912 -122.591941 14 38ft 0kts
02-Jun-19 08:06 45.585912 -122.591941 14 38ft 0kts
02-Jun-19 08:07 45.585912 -122.591941 14 38ft 0kts
02-Jun-19 08:08 45.585912 -122.591941 14 38ft 0kts
02-Jun-19 08:09 45.585912 -122.591941 14 38ft 0kts
02-Jun-19 08:10 45.585912 -122.591941 14 38ft 0kts
02-Jun-19 08:11 45.585912 -122.591941 14 38ft 0kts
02-Jun-19 08:12 45.585912 -122.591941 14 38ft 0kts
02-Jun-19 08:13 45.585912 -122.591941 14 38ft 0kts
02-Jun-19 08:14 45.585904 -122.591943 14 38ft 1kts
02-Jun-19 08:15 45.585568 -122.592045 350 38ft 0kts
02-Jun-19 08:16 45.585568 -122.592045 350 38ft 0kts
02-Jun-19 08:17 45.585568 -122.592045 350 38ft 0kts
02-Jun-19 08:18 45.586833 -122.594791 303 38ft 19kts
02-Jun-19 08:19 45.589650 -122.601671 336 38ft 17kts
02-Jun-19 08:21 45.593108 -122.597699 13 38ft 14kts
02-Jun-19 08:22 45.593900 -122.598014 1 38ft 0kts
02-Jun-19 08:23 45.594479 -122.597452 45 38ft 0kts
02-Jun-19 08:24 45.594631 -122.595178 116 38ft 0kts
02-Jun-19 08:25 45.594631 -122.595178 116 38ft 0kts
02-Jun-19 08:26 45.589869 -122.582979 119 39ft 137kts
02-Jun-19 08:27 45.569019 -122.529972 116 2369ft 156kts
02-Jun-19 08:28 45.545781 -122.468078 121 4709ft 200kts
02-Jun-19 08:29 45.504547 -122.403365 129 7249ft 225kts
02-Jun-19 08:30 45.463074 -122.332327 129 9903ft 237kts
02-Jun-19 08:31 45.419910 -122.258478 129 12326ft 245kts
02-Jun-19 08:32 45.375098 -122.182295 129 14233ft 254kts
02-Jun-19 08:33 45.328804 -122.103856 128 15932ft 260kts
02-Jun-19 08:34 45.281576 -122.023933 128 17525ft 262kts
02-Jun-19 08:35 45.234020 -121.943618 128 18939ft 267kts
02-Jun-19 08:36 45.185793 -121.861992 128 20166ft 272kts
02-Jun-19 08:37 45.136418 -121.778639 127 21235ft 277kts
02-Jun-19 08:38 45.088346 -121.693428 114 22364ft 272kts
02-Jun-19 08:39 45.065438 -121.590495 103 23269ft 274kts
02-Jun-19 08:40 45.043150 -121.486067 103 24072ft 278kts
02-Jun-19 08:41 45.020749 -121.381294 103 24873ft 279kts
02-Jun-19 08:42 44.997241 -121.271433 104 24974ft 304kts
02-Jun-19 08:42 44.976060 -121.173492 104 24976ft 320kts
02-Jun-19 08:44 44.944771 -121.029612 104 24963ft 335kts
02-Jun-19 08:44 44.921683 -120.924153 104 24965ft 341kts
02-Jun-19 08:45 44.893421 -120.795513 104 24969ft 346kts
02-Jun-19 08:46 44.864693 -120.665488 105 24973ft 348kts
02-Jun-19 08:47 44.835627 -120.535163 105 24972ft 350kts
02-Jun-19 08:48 44.806344 -120.404016 104 24974ft 351kts
02-Jun-19 08:49 44.776848 -120.273037 105 24977ft 351kts
02-Jun-19 08:50 44.747229 -120.142535 104 24980ft 351kts
02-Jun-19 08:51 44.717449 -120.011656 104 24984ft 351kts
02-Jun-19 08:52 44.687398 -119.880940 104 24989ft 351kts
02-Jun-19 08:53 44.657521 -119.751029 104 24995ft 350kts
02-Jun-19 08:54 44.623547 -119.622960 110 25003ft 352kts
02-Jun-19 08:55 44.585353 -119.496636 109 25011ft 351kts
02-Jun-19 08:56 44.548341 -119.370228 109 25020ft 351kts
02-Jun-19 08:57 44.511151 -119.244160 109 25026ft 351kts
02-Jun-19 08:58 44.473767 -119.117990 109 25031ft 350kts
02-Jun-19 08:59 44.436294 -118.992332 109 25035ft 350kts
02-Jun-19 09:00 44.398670 -118.866641 109 25035ft 350kts
02-Jun-19 09:01 44.361061 -118.741649 109 25035ft 349kts
02-Jun-19 09:02 44.323271 -118.616814 109 25035ft 349kts
02-Jun-19 09:03 44.285394 -118.492213 109 25034ft 348kts
02-Jun-19 09:04 44.247547 -118.368010 109 25033ft 348kts
02-Jun-19 09:05 44.209161 -118.242364 110 23291ft 344kts
02-Jun-19 09:06 44.172430 -118.123316 110 21586ft 328kts
02-Jun-19 09:07 44.137054 -118.009022 110 19945ft 314kts
02-Jun-19 09:08 44.103294 -117.900522 110 18380ft 299kts
02-Jun-19 09:09 44.070995 -117.797096 110 16897ft 291kts
02-Jun-19 09:10 44.037828 -117.691183 111 15367ft 298kts
02-Jun-19 09:11 44.004624 -117.585681 112 13832ft 293kts
02-Jun-19 09:12 43.972999 -117.485725 113 12551ft 271kts
02-Jun-19 09:13 43.941889 -117.387740 113 11542ft 282kts
02-Jun-19 09:14 43.910109 -117.287740 113 10500ft 285kts
02-Jun-19 09:15 43.879079 -117.190581 113 9492ft 265kts
02-Jun-19 09:16 43.849770 -117.099296 113 8547ft 260kts
02-Jun-19 09:17 43.819739 -117.006085 114 7885ft 264kts
02-Jun-19 09:18 43.790616 -116.916619 113 7986ft 256kts
02-Jun-19 09:19 43.760956 -116.825283 113 7989ft 250kts
02-Jun-19 09:20 43.732863 -116.737863 113 7347ft 243kts
02-Jun-19 09:21 43.706170 -116.653323 113 6667ft 239kts
02-Jun-19 09:22 43.679472 -116.569027 113 6232ft 240kts
02-Jun-19 09:23 43.652580 -116.484950 113 5872ft 235kts
02-Jun-19 09:24 43.626248 -116.406733 115 5354ft 210kts
02-Jun-19 09:25 43.604581 -116.342948 116 4395ft 156kts
02-Jun-19 09:26 43.587703 -116.294239 115 3676ft 139kts
02-Jun-19 09:27 43.570890 -116.245171 114 2909ft 128kts
02-Jun-19 09:28 43.563691 -116.224366 115 2841ft 4kts
02-Jun-19 09:29 43.566706 -116.223103 11 2841ft 9kts
02-Jun-19 09:30 43.567510 -116.222807 23 2841ft 0kts

Navigation Log

Ident Type
Flight plan parsing failed, navigation log unavailable